sensor_id;sensor_type;location;lat;lon;timestamp;temperature;humidity
23186;DHT22;11761;51.324;4.590;2022-09-03T00:01:42;17.50;96.80
23186;DHT22;11761;51.324;4.590;2022-09-03T00:04:24;17.50;96.40
23186;DHT22;11761;51.324;4.590;2022-09-03T00:07:07;17.70;96.20
23186;DHT22;11761;51.324;4.590;2022-09-03T00:09:47;17.60;96.10
23186;DHT22;11761;51.324;4.590;2022-09-03T00:15:07;17.50;96.40
23186;DHT22;11761;51.324;4.590;2022-09-03T00:17:45;17.30;96.70
23186;DHT22;11761;51.324;4.590;2022-09-03T00:20:23;17.30;96.90
23186;DHT22;11761;51.324;4.590;2022-09-03T00:22:53;17.20;97.30
23186;DHT22;11761;51.324;4.590;2022-09-03T00:25:33;17.20;97.60
23186;DHT22;11761;51.324;4.590;2022-09-03T00:28:05;17.10;97.10
23186;DHT22;11761;51.324;4.590;2022-09-03T00:30:32;17.20;96.80
23186;DHT22;11761;51.324;4.590;2022-09-03T00:33:08;17.20;97.30
23186;DHT22;11761;51.324;4.590;2022-09-03T00:35:42;17.30;97.10
23186;DHT22;11761;51.324;4.590;2022-09-03T00:38:10;17.20;97.30
23186;DHT22;11761;51.324;4.590;2022-09-03T00:43:37;16.60;98.40
23186;DHT22;11761;51.324;4.590;2022-09-03T00:52:23;16.30;99.90
23186;DHT22;11761;51.324;4.590;2022-09-03T01:00:29;16.60;98.30
23186;DHT22;11761;51.324;4.590;2022-09-03T01:03:18;16.70;98.10
23186;DHT22;11761;51.324;4.590;2022-09-03T01:05:55;16.50;98.80
23186;DHT22;11761;51.324;4.590;2022-09-03T01:08:48;16.40;98.70
23186;DHT22;11761;51.324;4.590;2022-09-03T01:11:37;16.40;98.60
23186;DHT22;11761;51.324;4.590;2022-09-03T01:14:20;16.50;98.60
23186;DHT22;11761;51.324;4.590;2022-09-03T01:17:12;16.60;98.30
23186;DHT22;11761;51.324;4.590;2022-09-03T01:28:15;16.50;98.80
23186;DHT22;11761;51.324;4.590;2022-09-03T01:30:59;16.50;98.40
23186;DHT22;11761;51.324;4.590;2022-09-03T01:33:40;16.50;98.50
23186;DHT22;11761;51.324;4.590;2022-09-03T01:39:05;16.40;98.80
23186;DHT22;11761;51.324;4.590;2022-09-03T01:42:01;16.50;98.30
23186;DHT22;11761;51.324;4.590;2022-09-03T01:50:10;16.50;98.40
23186;DHT22;11761;51.324;4.590;2022-09-03T01:52:58;16.50;98.50
23186;DHT22;11761;51.324;4.590;2022-09-03T01:58:05;16.40;98.40
23186;DHT22;11761;51.324;4.590;2022-09-03T02:00:36;16.40;98.60
23186;DHT22;11761;51.324;4.590;2022-09-03T02:03:09;16.40;98.70
23186;DHT22;11761;51.324;4.590;2022-09-03T02:05:36;16.40;98.50
23186;DHT22;11761;51.324;4.590;2022-09-03T02:08:05;16.40;98.50
23186;DHT22;11761;51.324;4.590;2022-09-03T02:10:42;16.30;98.60
23186;DHT22;11761;51.324;4.590;2022-09-03T02:15:42;16.30;98.80
23186;DHT22;11761;51.324;4.590;2022-09-03T02:18:14;16.20;99.10
23186;DHT22;11761;51.324;4.590;2022-09-03T02:20:42;16.20;99.00
23186;DHT22;11761;51.324;4.590;2022-09-03T02:23:08;16.20;99.10
23186;DHT22;11761;51.324;4.590;2022-09-03T02:25:38;16.10;99.50
23186;DHT22;11761;51.324;4.590;2022-09-03T02:28:06;16.00;99.60
23186;DHT22;11761;51.324;4.590;2022-09-03T02:30:33;16.00;99.50
23186;DHT22;11761;51.324;4.590;2022-09-03T02:33:00;16.00;99.40
23186;DHT22;11761;51.324;4.590;2022-09-03T02:35:26;15.80;99.90
23186;DHT22;11761;51.324;4.590;2022-09-03T02:37:53;15.90;99.70
23186;DHT22;11761;51.324;4.590;2022-09-03T02:40:19;15.90;99.70
23186;DHT22;11761;51.324;4.590;2022-09-03T02:42:46;15.90;99.70
23186;DHT22;11761;51.324;4.590;2022-09-03T02:45:27;15.80;99.90
23186;DHT22;11761;51.324;4.590;2022-09-03T02:47:56;15.70;99.80
23186;DHT22;11761;51.324;4.590;2022-09-03T02:50:24;15.60;99.90
23186;DHT22;11761;51.324;4.590;2022-09-03T02:52:51;15.40;99.90
23186;DHT22;11761;51.324;4.590;2022-09-03T02:55:18;15.30;99.90
23186;DHT22;11761;51.324;4.590;2022-09-03T02:57:45;15.30;99.90
23186;DHT22;11761;51.324;4.590;2022-09-03T03:00:12;15.20;99.90
23186;DHT22;11761;51.324;4.590;2022-09-03T03:02:38;15.20;99.90
23186;DHT22;11761;51.324;4.590;2022-09-03T03:05:05;15.20;99.90
23186;DHT22;11761;51.324;4.590;2022-09-03T03:07:36;15.30;99.90
23186;DHT22;11761;51.324;4.590;2022-09-03T03:10:05;15.20;99.90
23186;DHT22;11761;51.324;4.590;2022-09-03T03:12:31;15.10;99.90
23186;DHT22;11761;51.324;4.590;2022-09-03T03:14:58;15.00;99.90
23186;DHT22;11761;51.324;4.590;2022-09-03T03:17:24;15.10;99.90
23186;DHT22;11761;51.324;4.590;2022-09-03T03:19:51;15.00;99.90
23186;DHT22;11761;51.324;4.590;2022-09-03T03:22:17;14.80;99.90
23186;DHT22;11761;51.324;4.590;2022-09-03T03:24:43;15.00;99.90
23186;DHT22;11761;51.324;4.590;2022-09-03T03:27:09;15.00;99.90
23186;DHT22;11761;51.324;4.590;2022-09-03T03:29:36;14.80;99.90
23186;DHT22;11761;51.324;4.590;2022-09-03T03:32:02;14.70;99.90
23186;DHT22;11761;51.324;4.590;2022-09-03T03:34:28;14.80;99.90
23186;DHT22;11761;51.324;4.590;2022-09-03T03:36:54;14.70;99.90
23186;DHT22;11761;51.324;4.590;2022-09-03T03:39:21;14.70;99.90
23186;DHT22;11761;51.324;4.590;2022-09-03T03:41:47;14.60;99.90
23186;DHT22;11761;51.324;4.590;2022-09-03T03:44:13;14.60;99.90
23186;DHT22;11761;51.324;4.590;2022-09-03T03:46:40;14.60;99.90
23186;DHT22;11761;51.324;4.590;2022-09-03T03:49:07;14.80;99.90
23186;DHT22;11761;51.324;4.590;2022-09-03T03:51:34;14.90;99.90
23186;DHT22;11761;51.324;4.590;2022-09-03T03:54:01;14.90;99.90
23186;DHT22;11761;51.324;4.590;2022-09-03T03:56:27;15.00;99.90
23186;DHT22;11761;51.324;4.590;2022-09-03T03:58:53;15.00;99.90
23186;DHT22;11761;51.324;4.590;2022-09-03T04:01:23;15.00;99.90
23186;DHT22;11761;51.324;4.590;2022-09-03T04:03:49;15.00;99.90
23186;DHT22;11761;51.324;4.590;2022-09-03T04:06:18;15.00;99.90
23186;DHT22;11761;51.324;4.590;2022-09-03T04:08:45;15.10;99.90
23186;DHT22;11761;51.324;4.590;2022-09-03T04:11:15;15.00;99.90
23186;DHT22;11761;51.324;4.590;2022-09-03T04:13:43;15.10;99.90
23186;DHT22;11761;51.324;4.590;2022-09-03T04:16:11;15.10;99.90
23186;DHT22;11761;51.324;4.590;2022-09-03T04:18:39;15.20;99.90
23186;DHT22;11761;51.324;4.590;2022-09-03T04:21:08;15.20;99.90
23186;DHT22;11761;51.324;4.590;2022-09-03T04:23:37;15.20;99.90
23186;DHT22;11761;51.324;4.590;2022-09-03T04:26:04;15.20;99.90
23186;DHT22;11761;51.324;4.590;2022-09-03T04:28:31;15.30;99.90
23186;DHT22;11761;51.324;4.590;2022-09-03T04:31:02;15.30;99.90
23186;DHT22;11761;51.324;4.590;2022-09-03T04:33:30;15.40;99.90
23186;DHT22;11761;51.324;4.590;2022-09-03T04:36:14;15.40;99.90
23186;DHT22;11761;51.324;4.590;2022-09-03T04:38:43;15.40;99.90
23186;DHT22;11761;51.324;4.590;2022-09-03T04:41:11;15.40;99.90
23186;DHT22;11761;51.324;4.590;2022-09-03T04:43:38;15.30;99.90
23186;DHT22;11761;51.324;4.590;2022-09-03T04:46:05;15.30;99.90
23186;DHT22;11761;51.324;4.590;2022-09-03T04:48:33;15.20;99.90
23186;DHT22;11761;51.324;4.590;2022-09-03T04:53:33;15.30;99.90
23186;DHT22;11761;51.324;4.590;2022-09-03T04:55:59;15.30;99.90
23186;DHT22;11761;51.324;4.590;2022-09-03T04:58:26;15.30;99.90
23186;DHT22;11761;51.324;4.590;2022-09-03T05:00:52;15.30;99.90
23186;DHT22;11761;51.324;4.590;2022-09-03T05:03:18;15.30;99.90
23186;DHT22;11761;51.324;4.590;2022-09-03T05:05:54;15.40;99.90
23186;DHT22;11761;51.324;4.590;2022-09-03T05:08:21;15.40;99.90
23186;DHT22;11761;51.324;4.590;2022-09-03T05:10:48;15.40;99.90
23186;DHT22;11761;51.324;4.590;2022-09-03T05:13:14;15.40;99.90
23186;DHT22;11761;51.324;4.590;2022-09-03T05:15:40;15.50;99.90
23186;DHT22;11761;51.324;4.590;2022-09-03T05:18:08;15.50;99.90
23186;DHT22;11761;51.324;4.590;2022-09-03T05:20:35;15.60;99.90
23186;DHT22;11761;51.324;4.590;2022-09-03T05:23:02;15.60;99.90
23186;DHT22;11761;51.324;4.590;2022-09-03T05:25:29;15.60;99.90
23186;DHT22;11761;51.324;4.590;2022-09-03T05:27:57;15.60;99.90
23186;DHT22;11761;51.324;4.590;2022-09-03T05:30:24;15.70;99.90
23186;DHT22;11761;51.324;4.590;2022-09-03T05:32:50;15.70;99.90
23186;DHT22;11761;51.324;4.590;2022-09-03T05:35:17;15.80;99.90
23186;DHT22;11761;51.324;4.590;2022-09-03T05:37:44;15.80;99.90
23186;DHT22;11761;51.324;4.590;2022-09-03T05:40:10;15.80;99.90
23186;DHT22;11761;51.324;4.590;2022-09-03T05:42:37;15.90;99.90
23186;DHT22;11761;51.324;4.590;2022-09-03T05:45:08;15.90;99.90
23186;DHT22;11761;51.324;4.590;2022-09-03T05:47:38;15.90;99.90
23186;DHT22;11761;51.324;4.590;2022-09-03T05:50:08;15.90;99.90
23186;DHT22;11761;51.324;4.590;2022-09-03T05:52:36;15.90;99.90
23186;DHT22;11761;51.324;4.590;2022-09-03T05:55:03;15.90;99.90
23186;DHT22;11761;51.324;4.590;2022-09-03T05:57:29;15.90;99.90
23186;DHT22;11761;51.324;4.590;2022-09-03T05:59:56;15.90;99.90
23186;DHT22;11761;51.324;4.590;2022-09-03T06:02:22;16.00;99.90
23186;DHT22;11761;51.324;4.590;2022-09-03T06:04:48;16.10;99.90
23186;DHT22;11761;51.324;4.590;2022-09-03T06:07:16;16.10;99.90
23186;DHT22;11761;51.324;4.590;2022-09-03T06:09:42;16.10;99.90
23186;DHT22;11761;51.324;4.590;2022-09-03T06:12:08;16.10;99.90
23186;DHT22;11761;51.324;4.590;2022-09-03T06:14:34;16.10;99.90
23186;DHT22;11761;51.324;4.590;2022-09-03T06:17:00;16.10;99.90
23186;DHT22;11761;51.324;4.590;2022-09-03T06:19:26;16.20;99.90
23186;DHT22;11761;51.324;4.590;2022-09-03T06:21:52;16.20;99.90
23186;DHT22;11761;51.324;4.590;2022-09-03T06:24:20;16.20;99.90
23186;DHT22;11761;51.324;4.590;2022-09-03T06:26:48;16.30;99.90
23186;DHT22;11761;51.324;4.590;2022-09-03T06:29:15;16.30;99.90
23186;DHT22;11761;51.324;4.590;2022-09-03T06:31:44;16.30;99.90
23186;DHT22;11761;51.324;4.590;2022-09-03T06:34:10;16.40;99.90
23186;DHT22;11761;51.324;4.590;2022-09-03T06:36:36;16.50;99.90
23186;DHT22;11761;51.324;4.590;2022-09-03T06:39:02;16.60;99.90
23186;DHT22;11761;51.324;4.590;2022-09-03T06:41:30;16.80;99.90
23186;DHT22;11761;51.324;4.590;2022-09-03T06:44:03;16.90;99.90
23186;DHT22;11761;51.324;4.590;2022-09-03T06:46:33;16.90;99.90
23186;DHT22;11761;51.324;4.590;2022-09-03T06:48:59;17.00;99.90
23186;DHT22;11761;51.324;4.590;2022-09-03T06:51:27;17.10;99.90
23186;DHT22;11761;51.324;4.590;2022-09-03T06:54:02;17.10;99.90
23186;DHT22;11761;51.324;4.590;2022-09-03T06:56:29;17.10;99.90
23186;DHT22;11761;51.324;4.590;2022-09-03T06:58:57;17.20;99.90
23186;DHT22;11761;51.324;4.590;2022-09-03T07:01:28;17.30;99.90
23186;DHT22;11761;51.324;4.590;2022-09-03T07:04:03;17.20;99.90
23186;DHT22;11761;51.324;4.590;2022-09-03T07:06:33;17.20;99.90
23186;DHT22;11761;51.324;4.590;2022-09-03T07:09:02;17.20;99.90
23186;DHT22;11761;51.324;4.590;2022-09-03T07:11:29;17.20;99.90
23186;DHT22;11761;51.324;4.590;2022-09-03T07:13:58;17.30;99.90
23186;DHT22;11761;51.324;4.590;2022-09-03T07:16:27;17.30;99.90
23186;DHT22;11761;51.324;4.590;2022-09-03T07:18:54;17.40;99.90
23186;DHT22;11761;51.324;4.590;2022-09-03T07:21:24;17.50;99.90
23186;DHT22;11761;51.324;4.590;2022-09-03T07:23:51;17.60;99.90
23186;DHT22;11761;51.324;4.590;2022-09-03T07:26:20;17.80;99.90
23186;DHT22;11761;51.324;4.590;2022-09-03T07:28:48;17.80;99.90
23186;DHT22;11761;51.324;4.590;2022-09-03T07:31:17;18.00;99.90
23186;DHT22;11761;51.324;4.590;2022-09-03T07:33:45;18.10;99.90
23186;DHT22;11761;51.324;4.590;2022-09-03T07:36:14;18.30;99.90
23186;DHT22;11761;51.324;4.590;2022-09-03T07:38:42;18.40;99.90
23186;DHT22;11761;51.324;4.590;2022-09-03T07:41:11;18.40;99.90
23186;DHT22;11761;51.324;4.590;2022-09-03T07:43:43;18.50;99.90
23186;DHT22;11761;51.324;4.590;2022-09-03T07:46:16;18.60;99.90
23186;DHT22;11761;51.324;4.590;2022-09-03T07:48:56;18.70;99.90
23186;DHT22;11761;51.324;4.590;2022-09-03T07:51:25;18.60;99.80
23186;DHT22;11761;51.324;4.590;2022-09-03T07:53:53;18.80;99.90
23186;DHT22;11761;51.324;4.590;2022-09-03T07:56:24;18.90;99.60
23186;DHT22;11761;51.324;4.590;2022-09-03T07:58:52;19.10;99.20
23186;DHT22;11761;51.324;4.590;2022-09-03T08:01:21;19.50;99.40
23186;DHT22;11761;51.324;4.590;2022-09-03T08:03:49;20.00;98.70
23186;DHT22;11761;51.324;4.590;2022-09-03T08:06:17;20.20;98.50
23186;DHT22;11761;51.324;4.590;2022-09-03T08:08:44;20.30;98.20
23186;DHT22;11761;51.324;4.590;2022-09-03T08:11:16;20.40;98.10
23186;DHT22;11761;51.324;4.590;2022-09-03T08:13:57;20.30;97.90
23186;DHT22;11761;51.324;4.590;2022-09-03T08:16:29;20.50;98.40
23186;DHT22;11761;51.324;4.590;2022-09-03T08:18:56;20.70;98.10
23186;DHT22;11761;51.324;4.590;2022-09-03T08:21:23;20.50;97.80
23186;DHT22;11761;51.324;4.590;2022-09-03T08:23:51;20.80;98.00
23186;DHT22;11761;51.324;4.590;2022-09-03T08:26:19;20.90;97.30
23186;DHT22;11761;51.324;4.590;2022-09-03T08:28:46;21.30;97.10
23186;DHT22;11761;51.324;4.590;2022-09-03T08:31:19;21.80;96.90
23186;DHT22;11761;51.324;4.590;2022-09-03T08:33:51;22.00;96.70
23186;DHT22;11761;51.324;4.590;2022-09-03T08:36:19;22.60;95.80
23186;DHT22;11761;51.324;4.590;2022-09-03T08:38:48;22.70;95.50
23186;DHT22;11761;51.324;4.590;2022-09-03T08:41:29;22.90;95.30
23186;DHT22;11761;51.324;4.590;2022-09-03T08:49:43;22.20;95.70
23186;DHT22;11761;51.324;4.590;2022-09-03T08:54:55;21.80;96.50
23186;DHT22;11761;51.324;4.590;2022-09-03T08:57:24;21.80;96.40
23186;DHT22;11761;51.324;4.590;2022-09-03T08:59:53;21.90;97.10
23186;DHT22;11761;51.324;4.590;2022-09-03T09:02:55;22.10;96.90
23186;DHT22;11761;51.324;4.590;2022-09-03T09:13:39;22.30;96.30
23186;DHT22;11761;51.324;4.590;2022-09-03T09:19:24;22.80;96.50
23186;DHT22;11761;51.324;4.590;2022-09-03T09:21:59;22.70;96.20
23186;DHT22;11761;51.324;4.590;2022-09-03T09:24:32;22.50;96.10
23186;DHT22;11761;51.324;4.590;2022-09-03T09:27:04;22.70;96.30
23186;DHT22;11761;51.324;4.590;2022-09-03T09:29:37;23.00;95.80
23186;DHT22;11761;51.324;4.590;2022-09-03T09:32:07;23.20;95.10
23186;DHT22;11761;51.324;4.590;2022-09-03T09:34:35;23.40;95.50
23186;DHT22;11761;51.324;4.590;2022-09-03T09:37:06;23.70;94.90
23186;DHT22;11761;51.324;4.590;2022-09-03T09:39:34;23.30;94.80
23186;DHT22;11761;51.324;4.590;2022-09-03T09:42:04;23.70;95.00
23186;DHT22;11761;51.324;4.590;2022-09-03T09:44:33;23.90;95.20
23186;DHT22;11761;51.324;4.590;2022-09-03T09:47:09;23.90;95.50
23186;DHT22;11761;51.324;4.590;2022-09-03T09:49:50;24.10;95.40
23186;DHT22;11761;51.324;4.590;2022-09-03T09:52:17;24.30;95.10
23186;DHT22;11761;51.324;4.590;2022-09-03T09:54:44;24.20;95.80
23186;DHT22;11761;51.324;4.590;2022-09-03T09:57:31;24.30;95.70
23186;DHT22;11761;51.324;4.590;2022-09-03T10:00:12;24.30;95.60
23186;DHT22;11761;51.324;4.590;2022-09-03T10:02:52;24.20;95.60
23186;DHT22;11761;51.324;4.590;2022-09-03T10:05:26;24.60;96.00
23186;DHT22;11761;51.324;4.590;2022-09-03T10:07:57;24.70;95.60
23186;DHT22;11761;51.324;4.590;2022-09-03T10:10:24;24.90;95.60
23186;DHT22;11761;51.324;4.590;2022-09-03T10:13:18;24.90;95.80
23186;DHT22;11761;51.324;4.590;2022-09-03T10:15:49;25.00;94.80
23186;DHT22;11761;51.324;4.590;2022-09-03T10:21:16;25.30;95.30
23186;DHT22;11761;51.324;4.590;2022-09-03T10:24:12;25.20;94.20
23186;DHT22;11761;51.324;4.590;2022-09-03T10:26:42;25.20;94.30
23186;DHT22;11761;51.324;4.590;2022-09-03T10:29:15;25.50;94.20
23186;DHT22;11761;51.324;4.590;2022-09-03T10:32:06;25.70;93.90
23186;DHT22;11761;51.324;4.590;2022-09-03T10:37:38;25.20;93.10
23186;DHT22;11761;51.324;4.590;2022-09-03T10:40:21;24.90;93.40
23186;DHT22;11761;51.324;4.590;2022-09-03T10:43:21;25.30;93.70
23186;DHT22;11761;51.324;4.590;2022-09-03T10:46:16;24.90;93.40
23186;DHT22;11761;51.324;4.590;2022-09-03T10:51:41;25.40;92.90
23186;DHT22;11761;51.324;4.590;2022-09-03T11:08:11;25.60;92.90
23186;DHT22;11761;51.324;4.590;2022-09-03T11:10:53;26.10;92.70
23186;DHT22;11761;51.324;4.590;2022-09-03T11:13:28;26.40;91.80
23186;DHT22;11761;51.324;4.590;2022-09-03T11:16:02;26.30;91.80
23186;DHT22;11761;51.324;4.590;2022-09-03T11:18:46;26.10;92.50
23186;DHT22;11761;51.324;4.590;2022-09-03T11:21:16;26.30;91.80
23186;DHT22;11761;51.324;4.590;2022-09-03T11:23:45;26.40;92.10
23186;DHT22;11761;51.324;4.590;2022-09-03T11:26:17;26.40;92.10
23186;DHT22;11761;51.324;4.590;2022-09-03T11:31:51;26.70;91.80
23186;DHT22;11761;51.324;4.590;2022-09-03T11:34:43;26.80;91.80
23186;DHT22;11761;51.324;4.590;2022-09-03T11:37:27;26.70;91.70
23186;DHT22;11761;51.324;4.590;2022-09-03T11:40:14;26.90;91.00
23186;DHT22;11761;51.324;4.590;2022-09-03T11:42:46;26.70;91.80
23186;DHT22;11761;51.324;4.590;2022-09-03T11:47:50;26.90;92.20
23186;DHT22;11761;51.324;4.590;2022-09-03T11:50:23;26.70;92.50
23186;DHT22;11761;51.324;4.590;2022-09-03T11:53:09;26.50;92.60
23186;DHT22;11761;51.324;4.590;2022-09-03T11:55:53;26.80;92.40
23186;DHT22;11761;51.324;4.590;2022-09-03T11:58:30;26.30;92.10
23186;DHT22;11761;51.324;4.590;2022-09-03T12:01:02;26.20;92.50
23186;DHT22;11761;51.324;4.590;2022-09-03T12:03:43;26.30;93.20
23186;DHT22;11761;51.324;4.590;2022-09-03T12:09:05;26.80;92.50
23186;DHT22;11761;51.324;4.590;2022-09-03T12:12:10;27.00;92.60
23186;DHT22;11761;51.324;4.590;2022-09-03T12:15:33;27.40;92.80
23186;DHT22;11761;51.324;4.590;2022-09-03T12:18:07;27.60;91.70
23186;DHT22;11761;51.324;4.590;2022-09-03T12:21:00;27.50;92.30
23186;DHT22;11761;51.324;4.590;2022-09-03T12:26:16;27.50;92.40
23186;DHT22;11761;51.324;4.590;2022-09-03T12:28:48;27.80;92.10
23186;DHT22;11761;51.324;4.590;2022-09-03T12:31:21;28.10;91.70
23186;DHT22;11761;51.324;4.590;2022-09-03T12:33:50;28.20;91.80
23186;DHT22;11761;51.324;4.590;2022-09-03T12:36:20;27.80;91.50
23186;DHT22;11761;51.324;4.590;2022-09-03T12:38:48;27.80;91.80
23186;DHT22;11761;51.324;4.590;2022-09-03T12:41:33;27.80;91.40
23186;DHT22;11761;51.324;4.590;2022-09-03T12:43:59;27.90;91.60
23186;DHT22;11761;51.324;4.590;2022-09-03T12:46:29;27.90;91.70
23186;DHT22;11761;51.324;4.590;2022-09-03T12:49:04;27.10;92.20
23186;DHT22;11761;51.324;4.590;2022-09-03T12:51:40;27.20;92.50
23186;DHT22;11761;51.324;4.590;2022-09-03T12:54:09;27.20;92.50
23186;DHT22;11761;51.324;4.590;2022-09-03T12:56:45;26.80;92.70
23186;DHT22;11761;51.324;4.590;2022-09-03T12:59:16;26.70;93.20
23186;DHT22;11761;51.324;4.590;2022-09-03T13:01:54;26.50;93.20
23186;DHT22;11761;51.324;4.590;2022-09-03T13:04:26;26.60;92.90
23186;DHT22;11761;51.324;4.590;2022-09-03T13:06:59;27.00;92.70
23186;DHT22;11761;51.324;4.590;2022-09-03T13:09:29;26.90;92.70
23186;DHT22;11761;51.324;4.590;2022-09-03T13:11:57;27.20;92.90
23186;DHT22;11761;51.324;4.590;2022-09-03T13:14:27;27.30;92.70
23186;DHT22;11761;51.324;4.590;2022-09-03T13:20:11;26.90;93.20
23186;DHT22;11761;51.324;4.590;2022-09-03T13:34:30;26.50;94.30
23186;DHT22;11761;51.324;4.590;2022-09-03T13:37:25;26.20;94.00
23186;DHT22;11761;51.324;4.590;2022-09-03T13:39:58;26.30;94.20
23186;DHT22;11761;51.324;4.590;2022-09-03T13:42:39;26.30;93.90
23186;DHT22;11761;51.324;4.590;2022-09-03T13:48:07;25.90;94.80
23186;DHT22;11761;51.324;4.590;2022-09-03T13:51:02;25.90;95.00
23186;DHT22;11761;51.324;4.590;2022-09-03T13:54:02;25.70;95.00
23186;DHT22;11761;51.324;4.590;2022-09-03T14:02:10;25.40;95.20
23186;DHT22;11761;51.324;4.590;2022-09-03T14:07:45;25.40;96.00
23186;DHT22;11761;51.324;4.590;2022-09-03T14:12:43;25.70;95.50
23186;DHT22;11761;51.324;4.590;2022-09-03T14:15:34;25.80;95.40
23186;DHT22;11761;51.324;4.590;2022-09-03T14:18:44;26.10;95.10
23186;DHT22;11761;51.324;4.590;2022-09-03T14:21:17;26.00;94.40
23186;DHT22;11761;51.324;4.590;2022-09-03T14:26:28;26.40;94.40
23186;DHT22;11761;51.324;4.590;2022-09-03T14:29:05;26.60;94.70
23186;DHT22;11761;51.324;4.590;2022-09-03T14:48:47;26.00;94.70
23186;DHT22;11761;51.324;4.590;2022-09-03T14:59:50;26.30;94.90
23186;DHT22;11761;51.324;4.590;2022-09-03T15:07:58;26.10;95.00
23186;DHT22;11761;51.324;4.590;2022-09-03T15:10:41;26.20;95.00
23186;DHT22;11761;51.324;4.590;2022-09-03T15:13:18;26.40;95.40
23186;DHT22;11761;51.324;4.590;2022-09-03T15:26:46;26.40;95.10
23186;DHT22;11761;51.324;4.590;2022-09-03T15:29:23;26.40;95.00
23186;DHT22;11761;51.324;4.590;2022-09-03T15:32:04;26.40;95.20
23186;DHT22;11761;51.324;4.590;2022-09-03T15:34:52;26.30;95.10
23186;DHT22;11761;51.324;4.590;2022-09-03T15:37:38;25.90;95.20
23186;DHT22;11761;51.324;4.590;2022-09-03T15:42:51;25.80;95.50
23186;DHT22;11761;51.324;4.590;2022-09-03T15:45:38;25.80;95.20
23186;DHT22;11761;51.324;4.590;2022-09-03T15:50:54;25.60;95.70
23186;DHT22;11761;51.324;4.590;2022-09-03T15:53:34;25.60;95.20
23186;DHT22;11761;51.324;4.590;2022-09-03T15:59:11;25.30;95.50
23186;DHT22;11761;51.324;4.590;2022-09-03T16:01:51;25.20;95.80
23186;DHT22;11761;51.324;4.590;2022-09-03T16:21:00;24.70;97.20
23186;DHT22;11761;51.324;4.590;2022-09-03T16:24:32;24.50;97.90
23186;DHT22;11761;51.324;4.590;2022-09-03T16:29:02;24.30;99.00
23186;DHT22;11761;51.324;4.590;2022-09-03T16:31:41;24.30;98.30
23186;DHT22;11761;51.324;4.590;2022-09-03T16:34:42;24.30;98.70
23186;DHT22;11761;51.324;4.590;2022-09-03T16:42:52;24.10;99.90
23186;DHT22;11761;51.324;4.590;2022-09-03T16:48:23;23.90;99.90
23186;DHT22;11761;51.324;4.590;2022-09-03T16:53:36;23.80;99.90
23186;DHT22;11761;51.324;4.590;2022-09-03T16:58:57;23.70;99.90
23186;DHT22;11761;51.324;4.590;2022-09-03T17:01:39;23.60;99.90
23186;DHT22;11761;51.324;4.590;2022-09-03T17:07:07;23.60;99.90
23186;DHT22;11761;51.324;4.590;2022-09-03T17:09:41;23.60;99.90
23186;DHT22;11761;51.324;4.590;2022-09-03T17:26:36;23.50;99.90
23186;DHT22;11761;51.324;4.590;2022-09-03T17:29:29;23.50;99.90
23186;DHT22;11761;51.324;4.590;2022-09-03T17:35:10;23.40;99.90
23186;DHT22;11761;51.324;4.590;2022-09-03T17:48:59;23.10;99.90
23186;DHT22;11761;51.324;4.590;2022-09-03T18:00:27;23.00;99.90
23186;DHT22;11761;51.324;4.590;2022-09-03T18:02:44;22.90;99.90
23186;DHT22;11761;51.324;4.590;2022-09-03T18:08:08;22.80;99.90
23186;DHT22;11761;51.324;4.590;2022-09-03T18:10:59;22.70;99.90
23186;DHT22;11761;51.324;4.590;2022-09-03T18:16:29;22.60;99.90
23186;DHT22;11761;51.324;4.590;2022-09-03T18:19:04;22.50;99.90
23186;DHT22;11761;51.324;4.590;2022-09-03T18:21:36;22.40;99.90
23186;DHT22;11761;51.324;4.590;2022-09-03T18:24:34;22.30;99.90
23186;DHT22;11761;51.324;4.590;2022-09-03T18:30:14;22.10;99.90
23186;DHT22;11761;51.324;4.590;2022-09-03T18:32:59;22.00;99.90
23186;DHT22;11761;51.324;4.590;2022-09-03T18:35:45;22.00;99.90
23186;DHT22;11761;51.324;4.590;2022-09-03T18:38:32;21.90;99.90
23186;DHT22;11761;51.324;4.590;2022-09-03T18:44:09;21.80;99.90
23186;DHT22;11761;51.324;4.590;2022-09-03T19:02:37;21.20;99.90
23186;DHT22;11761;51.324;4.590;2022-09-03T19:05:26;21.20;99.90
23186;DHT22;11761;51.324;4.590;2022-09-03T19:08:24;21.20;99.90
23186;DHT22;11761;51.324;4.590;2022-09-03T19:11:34;21.20;99.90
23186;DHT22;11761;51.324;4.590;2022-09-03T19:17:24;21.30;99.90
23186;DHT22;11761;51.324;4.590;2022-09-03T19:20:24;21.40;99.90
23186;DHT22;11761;51.324;4.590;2022-09-03T19:23:10;21.50;99.90
23186;DHT22;11761;51.324;4.590;2022-09-03T19:26:04;21.60;99.90
23186;DHT22;11761;51.324;4.590;2022-09-03T19:28:55;21.60;99.90
23186;DHT22;11761;51.324;4.590;2022-09-03T19:31:59;21.60;99.90
23186;DHT22;11761;51.324;4.590;2022-09-03T19:35:13;21.60;99.90
23186;DHT22;11761;51.324;4.590;2022-09-03T19:41:39;21.30;99.90
23186;DHT22;11761;51.324;4.590;2022-09-03T19:48:13;20.90;99.90
23186;DHT22;11761;51.324;4.590;2022-09-03T19:51:12;20.70;99.90
23186;DHT22;11761;51.324;4.590;2022-09-03T19:54:00;20.50;99.90
23186;DHT22;11761;51.324;4.590;2022-09-03T19:56:47;20.50;99.90
23186;DHT22;11761;51.324;4.590;2022-09-03T19:59:38;20.50;99.90
23186;DHT22;11761;51.324;4.590;2022-09-03T20:02:24;20.40;99.90
23186;DHT22;11761;51.324;4.590;2022-09-03T20:05:15;20.20;99.90
23186;DHT22;11761;51.324;4.590;2022-09-03T20:08:00;20.20;99.90
23186;DHT22;11761;51.324;4.590;2022-09-03T20:10:46;20.10;99.90
23186;DHT22;11761;51.324;4.590;2022-09-03T20:13:16;20.20;99.90
23186;DHT22;11761;51.324;4.590;2022-09-03T20:35:03;19.80;99.90
23186;DHT22;11761;51.324;4.590;2022-09-03T20:49:05;19.20;99.90
23186;DHT22;11761;51.324;4.590;2022-09-03T20:51:57;19.20;99.90
23186;DHT22;11761;51.324;4.590;2022-09-03T20:54:34;19.10;99.90
23186;DHT22;11761;51.324;4.590;2022-09-03T21:00:12;18.90;99.90
23186;DHT22;11761;51.324;4.590;2022-09-03T21:11:38;18.60;99.90
23186;DHT22;11761;51.324;4.590;2022-09-03T21:19:18;18.30;99.90
23186;DHT22;11761;51.324;4.590;2022-09-03T21:24:31;18.20;99.90
23186;DHT22;11761;51.324;4.590;2022-09-03T21:27:09;18.10;99.90
23186;DHT22;11761;51.324;4.590;2022-09-03T21:29:45;18.00;99.90
23186;DHT22;11761;51.324;4.590;2022-09-03T21:32:22;17.90;99.90
23186;DHT22;11761;51.324;4.590;2022-09-03T21:34:57;17.90;99.90
23186;DHT22;11761;51.324;4.590;2022-09-03T21:37:35;17.80;99.90
23186;DHT22;11761;51.324;4.590;2022-09-03T21:40:03;17.80;99.90
23186;DHT22;11761;51.324;4.590;2022-09-03T21:42:45;17.70;99.90
23186;DHT22;11761;51.324;4.590;2022-09-03T21:45:26;17.60;99.90
23186;DHT22;11761;51.324;4.590;2022-09-03T21:48:02;17.60;99.90
23186;DHT22;11761;51.324;4.590;2022-09-03T21:50:48;17.50;99.90
23186;DHT22;11761;51.324;4.590;2022-09-03T22:01:21;17.30;99.90
23186;DHT22;11761;51.324;4.590;2022-09-03T22:03:51;17.30;99.90